sensor_id;sensor_type;location;lat;lon;timestamp;temperature;humidity
44729;DHT22;30457;53.590;9.922;2023-06-04T00:00:08;17.70;35.80
44729;DHT22;30457;53.590;9.922;2023-06-04T00:04:35;17.60;36.10
44729;DHT22;30457;53.590;9.922;2023-06-04T00:09:00;17.60;36.10
44729;DHT22;30457;53.590;9.922;2023-06-04T00:13:26;17.50;36.40
44729;DHT22;30457;53.590;9.922;2023-06-04T00:17:51;17.40;36.40
44729;DHT22;30457;53.590;9.922;2023-06-04T00:22:17;17.40;36.80
44729;DHT22;30457;53.590;9.922;2023-06-04T00:26:43;17.30;36.90
44729;DHT22;30457;53.590;9.922;2023-06-04T00:31:09;17.20;37.00
44729;DHT22;30457;53.590;9.922;2023-06-04T00:35:35;17.10;37.30
44729;DHT22;30457;53.590;9.922;2023-06-04T00:40:01;17.00;37.20
44729;DHT22;30457;53.590;9.922;2023-06-04T00:44:27;16.90;37.60
44729;DHT22;30457;53.590;9.922;2023-06-04T00:48:53;16.90;37.70
44729;DHT22;30457;53.590;9.922;2023-06-04T00:53:20;16.80;37.80
44729;DHT22;30457;53.590;9.922;2023-06-04T00:57:45;16.80;38.10
44729;DHT22;30457;53.590;9.922;2023-06-04T01:02:14;16.70;38.10
44729;DHT22;30457;53.590;9.922;2023-06-04T01:06:46;16.60;38.40
44729;DHT22;30457;53.590;9.922;2023-06-04T01:11:14;16.50;38.60
44729;DHT22;30457;53.590;9.922;2023-06-04T01:15:40;16.40;38.40
44729;DHT22;30457;53.590;9.922;2023-06-04T01:20:16;16.40;38.50
44729;DHT22;30457;53.590;9.922;2023-06-04T01:24:45;16.30;39.00
44729;DHT22;30457;53.590;9.922;2023-06-04T01:29:14;16.20;38.60
44729;DHT22;30457;53.590;9.922;2023-06-04T01:33:40;16.20;38.80
44729;DHT22;30457;53.590;9.922;2023-06-04T01:38:06;16.10;38.90
44729;DHT22;30457;53.590;9.922;2023-06-04T01:42:32;16.00;39.00
44729;DHT22;30457;53.590;9.922;2023-06-04T01:46:58;16.00;39.20
44729;DHT22;30457;53.590;9.922;2023-06-04T01:51:23;15.90;39.30
44729;DHT22;30457;53.590;9.922;2023-06-04T01:55:49;15.90;39.40
44729;DHT22;30457;53.590;9.922;2023-06-04T02:00:15;15.80;39.50
44729;DHT22;30457;53.590;9.922;2023-06-04T02:04:41;15.80;39.70
44729;DHT22;30457;53.590;9.922;2023-06-04T02:09:08;15.70;39.90
44729;DHT22;30457;53.590;9.922;2023-06-04T02:13:34;15.70;40.00
44729;DHT22;30457;53.590;9.922;2023-06-04T02:18:19;15.60;40.20
44729;DHT22;30457;53.590;9.922;2023-06-04T02:22:48;15.50;40.70
44729;DHT22;30457;53.590;9.922;2023-06-04T02:27:13;15.50;40.50
44729;DHT22;30457;53.590;9.922;2023-06-04T02:31:40;15.50;40.50
44729;DHT22;30457;53.590;9.922;2023-06-04T02:36:05;15.40;40.50
44729;DHT22;30457;53.590;9.922;2023-06-04T02:40:31;15.40;40.60
44729;DHT22;30457;53.590;9.922;2023-06-04T02:44:57;15.30;40.60
44729;DHT22;30457;53.590;9.922;2023-06-04T02:49:22;15.30;40.70
44729;DHT22;30457;53.590;9.922;2023-06-04T02:53:48;15.20;40.90
44729;DHT22;30457;53.590;9.922;2023-06-04T02:58:13;15.20;40.90
44729;DHT22;30457;53.590;9.922;2023-06-04T03:02:41;15.20;41.30
44729;DHT22;30457;53.590;9.922;2023-06-04T03:07:09;15.10;41.30
44729;DHT22;30457;53.590;9.922;2023-06-04T03:11:36;15.10;41.60
44729;DHT22;30457;53.590;9.922;2023-06-04T03:16:02;15.00;41.60
44729;DHT22;30457;53.590;9.922;2023-06-04T03:20:29;15.00;41.70
44729;DHT22;30457;53.590;9.922;2023-06-04T03:24:54;14.90;41.60
44729;DHT22;30457;53.590;9.922;2023-06-04T03:29:20;14.90;41.80
44729;DHT22;30457;53.590;9.922;2023-06-04T03:33:47;14.90;41.90
44729;DHT22;30457;53.590;9.922;2023-06-04T03:38:14;14.90;42.00
44729;DHT22;30457;53.590;9.922;2023-06-04T03:42:43;14.80;42.10
44729;DHT22;30457;53.590;9.922;2023-06-04T03:47:09;14.80;42.30
44729;DHT22;30457;53.590;9.922;2023-06-04T03:51:35;14.80;42.40
44729;DHT22;30457;53.590;9.922;2023-06-04T03:56:02;14.80;42.60
44729;DHT22;30457;53.590;9.922;2023-06-04T04:00:28;14.80;42.70
44729;DHT22;30457;53.590;9.922;2023-06-04T04:04:58;14.80;43.00
44729;DHT22;30457;53.590;9.922;2023-06-04T04:09:23;14.90;42.90
44729;DHT22;30457;53.590;9.922;2023-06-04T04:13:49;15.00;43.00
44729;DHT22;30457;53.590;9.922;2023-06-04T04:18:16;15.00;43.20
44729;DHT22;30457;53.590;9.922;2023-06-04T04:22:42;15.10;43.20
44729;DHT22;30457;53.590;9.922;2023-06-04T04:27:09;15.10;43.20
44729;DHT22;30457;53.590;9.922;2023-06-04T04:31:36;15.20;43.30
44729;DHT22;30457;53.590;9.922;2023-06-04T04:36:04;15.20;43.10
44729;DHT22;30457;53.590;9.922;2023-06-04T04:40:31;15.30;43.60
44729;DHT22;30457;53.590;9.922;2023-06-04T04:44:58;15.40;43.50
44729;DHT22;30457;53.590;9.922;2023-06-04T04:49:25;15.50;43.70
44729;DHT22;30457;53.590;9.922;2023-06-04T04:53:51;15.60;44.10
44729;DHT22;30457;53.590;9.922;2023-06-04T04:58:17;15.70;44.20
44729;DHT22;30457;53.590;9.922;2023-06-04T05:02:43;15.70;44.30
44729;DHT22;30457;53.590;9.922;2023-06-04T05:07:09;15.90;44.40
44729;DHT22;30457;53.590;9.922;2023-06-04T05:11:35;16.00;44.60
44729;DHT22;30457;53.590;9.922;2023-06-04T05:16:02;16.10;44.60
44729;DHT22;30457;53.590;9.922;2023-06-04T05:20:33;16.20;44.70
44729;DHT22;30457;53.590;9.922;2023-06-04T05:25:00;16.30;44.70
44729;DHT22;30457;53.590;9.922;2023-06-04T05:29:26;16.40;44.80
44729;DHT22;30457;53.590;9.922;2023-06-04T05:33:52;16.60;44.70
44729;DHT22;30457;53.590;9.922;2023-06-04T05:38:20;16.70;44.80
44729;DHT22;30457;53.590;9.922;2023-06-04T05:42:51;16.90;44.90
44729;DHT22;30457;53.590;9.922;2023-06-04T05:47:16;16.90;44.90
44729;DHT22;30457;53.590;9.922;2023-06-04T05:51:44;17.10;44.80
44729;DHT22;30457;53.590;9.922;2023-06-04T05:56:10;17.20;44.70
44729;DHT22;30457;53.590;9.922;2023-06-04T06:00:36;17.30;44.80
44729;DHT22;30457;53.590;9.922;2023-06-04T06:05:02;17.50;44.70
44729;DHT22;30457;53.590;9.922;2023-06-04T06:09:28;17.60;44.60
44729;DHT22;30457;53.590;9.922;2023-06-04T06:13:53;17.80;44.50
44729;DHT22;30457;53.590;9.922;2023-06-04T06:18:19;18.00;44.50
44729;DHT22;30457;53.590;9.922;2023-06-04T06:22:45;18.20;44.30
44729;DHT22;30457;53.590;9.922;2023-06-04T06:27:11;18.40;44.10
44729;DHT22;30457;53.590;9.922;2023-06-04T06:31:38;18.60;44.10
44729;DHT22;30457;53.590;9.922;2023-06-04T06:36:04;18.80;43.40
44729;DHT22;30457;53.590;9.922;2023-06-04T06:40:30;18.90;42.60
44729;DHT22;30457;53.590;9.922;2023-06-04T06:44:58;19.10;42.40
44729;DHT22;30457;53.590;9.922;2023-06-04T06:49:23;19.20;42.20
44729;DHT22;30457;53.590;9.922;2023-06-04T06:53:50;19.30;41.80
44729;DHT22;30457;53.590;9.922;2023-06-04T06:58:18;19.50;42.20
44729;DHT22;30457;53.590;9.922;2023-06-04T07:02:44;19.60;41.50
44729;DHT22;30457;53.590;9.922;2023-06-04T07:07:09;19.80;41.60
44729;DHT22;30457;53.590;9.922;2023-06-04T07:11:35;20.00;41.80
44729;DHT22;30457;53.590;9.922;2023-06-04T07:16:01;20.20;41.00
44729;DHT22;30457;53.590;9.922;2023-06-04T07:20:27;20.30;40.80
44729;DHT22;30457;53.590;9.922;2023-06-04T07:24:53;20.60;41.20
44729;DHT22;30457;53.590;9.922;2023-06-04T07:29:18;20.80;40.80
44729;DHT22;30457;53.590;9.922;2023-06-04T07:33:44;21.10;39.40
44729;DHT22;30457;53.590;9.922;2023-06-04T07:38:09;21.30;39.00
44729;DHT22;30457;53.590;9.922;2023-06-04T07:42:35;21.50;38.80
44729;DHT22;30457;53.590;9.922;2023-06-04T07:47:01;21.80;38.50
44729;DHT22;30457;53.590;9.922;2023-06-04T07:51:26;22.00;37.60
44729;DHT22;30457;53.590;9.922;2023-06-04T07:55:52;22.20;37.50
44729;DHT22;30457;53.590;9.922;2023-06-04T08:00:18;22.40;36.40
44729;DHT22;30457;53.590;9.922;2023-06-04T08:04:44;22.70;36.00
44729;DHT22;30457;53.590;9.922;2023-06-04T08:09:11;22.80;36.10
44729;DHT22;30457;53.590;9.922;2023-06-04T08:13:37;23.00;35.30
44729;DHT22;30457;53.590;9.922;2023-06-04T08:18:02;23.20;35.40
44729;DHT22;30457;53.590;9.922;2023-06-04T08:22:28;23.40;35.50
44729;DHT22;30457;53.590;9.922;2023-06-04T08:26:54;23.70;35.30
44729;DHT22;30457;53.590;9.922;2023-06-04T08:31:20;23.90;34.80
44729;DHT22;30457;53.590;9.922;2023-06-04T08:35:45;24.10;33.10
44729;DHT22;30457;53.590;9.922;2023-06-04T08:40:11;24.30;32.50
44729;DHT22;30457;53.590;9.922;2023-06-04T08:44:37;24.40;32.50
44729;DHT22;30457;53.590;9.922;2023-06-04T08:49:04;24.60;31.60
44729;DHT22;30457;53.590;9.922;2023-06-04T08:53:32;24.80;32.00
44729;DHT22;30457;53.590;9.922;2023-06-04T08:57:57;24.90;31.50
44729;DHT22;30457;53.590;9.922;2023-06-04T09:02:27;25.20;31.50
44729;DHT22;30457;53.590;9.922;2023-06-04T09:06:53;25.30;30.70
44729;DHT22;30457;53.590;9.922;2023-06-04T09:11:20;25.60;30.20
44729;DHT22;30457;53.590;9.922;2023-06-04T09:15:57;25.80;30.60
44729;DHT22;30457;53.590;9.922;2023-06-04T09:20:24;26.00;30.00
44729;DHT22;30457;53.590;9.922;2023-06-04T09:24:49;26.30;29.60
44729;DHT22;30457;53.590;9.922;2023-06-04T09:29:16;26.40;29.50
44729;DHT22;30457;53.590;9.922;2023-06-04T09:33:46;26.50;29.00
44729;DHT22;30457;53.590;9.922;2023-06-04T09:38:12;26.70;28.90
44729;DHT22;30457;53.590;9.922;2023-06-04T09:42:42;26.80;29.00
44729;DHT22;30457;53.590;9.922;2023-06-04T09:47:08;26.90;28.60
44729;DHT22;30457;53.590;9.922;2023-06-04T09:51:33;27.10;28.80
44729;DHT22;30457;53.590;9.922;2023-06-04T09:56:00;27.30;28.50
44729;DHT22;30457;53.590;9.922;2023-06-04T10:00:26;27.40;28.10
44729;DHT22;30457;53.590;9.922;2023-06-04T10:04:55;27.60;28.10
44729;DHT22;30457;53.590;9.922;2023-06-04T10:09:24;27.70;27.60
44729;DHT22;30457;53.590;9.922;2023-06-04T10:14:00;27.90;27.50
44729;DHT22;30457;53.590;9.922;2023-06-04T10:18:28;28.10;27.60
44729;DHT22;30457;53.590;9.922;2023-06-04T10:22:54;28.30;27.40
44729;DHT22;30457;53.590;9.922;2023-06-04T10:27:20;28.50;27.80
44729;DHT22;30457;53.590;9.922;2023-06-04T10:31:47;28.60;26.80
44729;DHT22;30457;53.590;9.922;2023-06-04T10:36:20;28.90;26.90
44729;DHT22;30457;53.590;9.922;2023-06-04T10:40:46;29.00;26.30
44729;DHT22;30457;53.590;9.922;2023-06-04T10:45:12;29.10;25.90
44729;DHT22;30457;53.590;9.922;2023-06-04T10:49:37;29.10;26.30
44729;DHT22;30457;53.590;9.922;2023-06-04T10:54:03;29.20;26.40
44729;DHT22;30457;53.590;9.922;2023-06-04T10:58:33;29.30;26.40
44729;DHT22;30457;53.590;9.922;2023-06-04T11:02:58;29.40;25.80
44729;DHT22;30457;53.590;9.922;2023-06-04T11:07:24;29.60;26.30
44729;DHT22;30457;53.590;9.922;2023-06-04T11:11:59;29.70;25.60
44729;DHT22;30457;53.590;9.922;2023-06-04T11:16:24;29.80;25.30
44729;DHT22;30457;53.590;9.922;2023-06-04T11:20:59;29.90;25.30
44729;DHT22;30457;53.590;9.922;2023-06-04T11:25:25;30.00;25.60
44729;DHT22;30457;53.590;9.922;2023-06-04T11:29:51;30.10;25.30
44729;DHT22;30457;53.590;9.922;2023-06-04T11:34:28;30.10;25.20
44729;DHT22;30457;53.590;9.922;2023-06-04T11:38:56;30.20;24.80
44729;DHT22;30457;53.590;9.922;2023-06-04T11:43:23;30.30;25.20
44729;DHT22;30457;53.590;9.922;2023-06-04T11:47:53;30.40;25.00
44729;DHT22;30457;53.590;9.922;2023-06-04T11:52:20;30.60;24.50
44729;DHT22;30457;53.590;9.922;2023-06-04T11:56:48;30.70;24.30
44729;DHT22;30457;53.590;9.922;2023-06-04T12:01:14;30.80;24.00
44729;DHT22;30457;53.590;9.922;2023-06-04T12:05:40;30.90;24.00
44729;DHT22;30457;53.590;9.922;2023-06-04T12:10:07;31.00;23.30
44729;DHT22;30457;53.590;9.922;2023-06-04T12:14:34;31.10;23.50
44729;DHT22;30457;53.590;9.922;2023-06-04T12:19:10;31.10;23.30
44729;DHT22;30457;53.590;9.922;2023-06-04T12:23:36;31.10;23.80
44729;DHT22;30457;53.590;9.922;2023-06-04T12:28:02;31.10;23.80
44729;DHT22;30457;53.590;9.922;2023-06-04T12:32:29;31.20;23.10
44729;DHT22;30457;53.590;9.922;2023-06-04T12:36:55;31.20;23.20
44729;DHT22;30457;53.590;9.922;2023-06-04T12:41:21;31.20;23.00
44729;DHT22;30457;53.590;9.922;2023-06-04T12:45:46;31.30;23.80
44729;DHT22;30457;53.590;9.922;2023-06-04T12:50:12;31.40;23.00
44729;DHT22;30457;53.590;9.922;2023-06-04T12:54:38;31.40;22.70
44729;DHT22;30457;53.590;9.922;2023-06-04T12:59:03;31.40;23.50
44729;DHT22;30457;53.590;9.922;2023-06-04T13:03:30;31.40;22.60
44729;DHT22;30457;53.590;9.922;2023-06-04T13:07:56;31.50;23.70
44729;DHT22;30457;53.590;9.922;2023-06-04T13:12:21;31.50;23.60
44729;DHT22;30457;53.590;9.922;2023-06-04T13:16:47;31.60;23.10
44729;DHT22;30457;53.590;9.922;2023-06-04T13:21:14;31.70;23.30
44729;DHT22;30457;53.590;9.922;2023-06-04T13:25:40;31.60;22.90
44729;DHT22;30457;53.590;9.922;2023-06-04T13:30:06;31.60;22.90
44729;DHT22;30457;53.590;9.922;2023-06-04T13:34:32;31.60;23.10
44729;DHT22;30457;53.590;9.922;2023-06-04T13:38:58;31.70;23.80
44729;DHT22;30457;53.590;9.922;2023-06-04T13:43:23;31.80;22.70
44729;DHT22;30457;53.590;9.922;2023-06-04T13:47:49;31.80;22.80
44729;DHT22;30457;53.590;9.922;2023-06-04T13:52:15;31.90;23.10
44729;DHT22;30457;53.590;9.922;2023-06-04T13:56:40;32.00;23.00
44729;DHT22;30457;53.590;9.922;2023-06-04T14:01:06;32.10;22.50
44729;DHT22;30457;53.590;9.922;2023-06-04T14:05:32;32.20;22.00
44729;DHT22;30457;53.590;9.922;2023-06-04T14:09:57;32.20;21.90
44729;DHT22;30457;53.590;9.922;2023-06-04T14:14:23;32.10;21.90
44729;DHT22;30457;53.590;9.922;2023-06-04T14:18:48;32.00;21.60
44729;DHT22;30457;53.590;9.922;2023-06-04T14:23:14;32.10;22.30
44729;DHT22;30457;53.590;9.922;2023-06-04T14:27:41;32.00;22.40
44729;DHT22;30457;53.590;9.922;2023-06-04T14:32:07;32.10;22.40
44729;DHT22;30457;53.590;9.922;2023-06-04T14:36:33;32.20;22.00
44729;DHT22;30457;53.590;9.922;2023-06-04T14:40:59;32.20;22.10
44729;DHT22;30457;53.590;9.922;2023-06-04T14:45:25;32.20;21.70
44729;DHT22;30457;53.590;9.922;2023-06-04T14:49:50;32.20;21.90
44729;DHT22;30457;53.590;9.922;2023-06-04T14:54:16;32.20;21.90
44729;DHT22;30457;53.590;9.922;2023-06-04T14:58:42;32.30;22.10
44729;DHT22;30457;53.590;9.922;2023-06-04T15:03:07;32.30;22.30
44729;DHT22;30457;53.590;9.922;2023-06-04T15:07:33;32.40;22.00
44729;DHT22;30457;53.590;9.922;2023-06-04T15:11:59;32.50;21.60
44729;DHT22;30457;53.590;9.922;2023-06-04T15:16:24;32.50;21.80
44729;DHT22;30457;53.590;9.922;2023-06-04T15:20:50;32.60;21.80
44729;DHT22;30457;53.590;9.922;2023-06-04T15:25:15;32.60;21.90
44729;DHT22;30457;53.590;9.922;2023-06-04T15:29:41;32.70;21.80
44729;DHT22;30457;53.590;9.922;2023-06-04T15:34:08;32.60;21.90
44729;DHT22;30457;53.590;9.922;2023-06-04T15:38:33;32.60;21.90
44729;DHT22;30457;53.590;9.922;2023-06-04T15:42:59;32.50;22.10
44729;DHT22;30457;53.590;9.922;2023-06-04T15:47:24;32.50;22.00
44729;DHT22;30457;53.590;9.922;2023-06-04T15:51:50;32.40;22.10
44729;DHT22;30457;53.590;9.922;2023-06-04T15:56:16;32.40;22.20
44729;DHT22;30457;53.590;9.922;2023-06-04T16:00:41;32.40;22.00
44729;DHT22;30457;53.590;9.922;2023-06-04T16:05:07;32.40;22.20
44729;DHT22;30457;53.590;9.922;2023-06-04T16:09:33;32.30;22.00
44729;DHT22;30457;53.590;9.922;2023-06-04T16:13:58;32.20;22.00
44729;DHT22;30457;53.590;9.922;2023-06-04T16:18:24;32.10;21.80
44729;DHT22;30457;53.590;9.922;2023-06-04T16:22:49;31.90;22.10
44729;DHT22;30457;53.590;9.922;2023-06-04T16:27:15;31.70;22.10
44729;DHT22;30457;53.590;9.922;2023-06-04T16:31:41;31.50;22.30
44729;DHT22;30457;53.590;9.922;2023-06-04T16:36:06;31.30;22.20
44729;DHT22;30457;53.590;9.922;2023-06-04T16:40:32;31.20;22.30
44729;DHT22;30457;53.590;9.922;2023-06-04T16:44:58;31.10;22.40
44729;DHT22;30457;53.590;9.922;2023-06-04T16:49:24;31.00;22.40
44729;DHT22;30457;53.590;9.922;2023-06-04T16:53:49;30.80;22.20
44729;DHT22;30457;53.590;9.922;2023-06-04T16:58:15;30.70;22.60
44729;DHT22;30457;53.590;9.922;2023-06-04T17:02:41;30.80;22.50
44729;DHT22;30457;53.590;9.922;2023-06-04T17:07:06;30.80;22.70
44729;DHT22;30457;53.590;9.922;2023-06-04T17:11:32;30.80;22.20
44729;DHT22;30457;53.590;9.922;2023-06-04T17:15:58;30.70;22.20
44729;DHT22;30457;53.590;9.922;2023-06-04T17:20:24;30.60;22.20
44729;DHT22;30457;53.590;9.922;2023-06-04T17:24:50;30.40;22.10
44729;DHT22;30457;53.590;9.922;2023-06-04T17:29:15;30.20;22.00
44729;DHT22;30457;53.590;9.922;2023-06-04T17:33:41;29.80;22.50
44729;DHT22;30457;53.590;9.922;2023-06-04T17:38:07;29.50;22.50
44729;DHT22;30457;53.590;9.922;2023-06-04T17:42:32;29.30;22.60
44729;DHT22;30457;53.590;9.922;2023-06-04T17:46:58;28.90;22.70
44729;DHT22;30457;53.590;9.922;2023-06-04T17:51:29;28.70;22.90
44729;DHT22;30457;53.590;9.922;2023-06-04T17:55:56;28.40;23.20
44729;DHT22;30457;53.590;9.922;2023-06-04T18:00:22;28.10;23.10
44729;DHT22;30457;53.590;9.922;2023-06-04T18:04:49;27.90;23.40
44729;DHT22;30457;53.590;9.922;2023-06-04T18:09:15;27.70;23.50
44729;DHT22;30457;53.590;9.922;2023-06-04T18:13:41;27.50;23.60
44729;DHT22;30457;53.590;9.922;2023-06-04T18:18:07;27.30;23.70
44729;DHT22;30457;53.590;9.922;2023-06-04T18:22:32;27.10;24.10
44729;DHT22;30457;53.590;9.922;2023-06-04T18:26:58;26.90;24.80
44729;DHT22;30457;53.590;9.922;2023-06-04T18:31:25;26.70;24.70
44729;DHT22;30457;53.590;9.922;2023-06-04T18:35:51;26.50;25.10
44729;DHT22;30457;53.590;9.922;2023-06-04T18:40:17;26.30;25.40
44729;DHT22;30457;53.590;9.922;2023-06-04T18:44:42;26.10;25.50
44729;DHT22;30457;53.590;9.922;2023-06-04T18:49:08;25.90;25.70
44729;DHT22;30457;53.590;9.922;2023-06-04T18:53:34;25.70;25.90
44729;DHT22;30457;53.590;9.922;2023-06-04T18:57:59;25.50;26.20
44729;DHT22;30457;53.590;9.922;2023-06-04T19:02:25;25.30;26.40
44729;DHT22;30457;53.590;9.922;2023-06-04T19:06:51;25.20;26.50
44729;DHT22;30457;53.590;9.922;2023-06-04T19:11:16;25.10;26.80
44729;DHT22;30457;53.590;9.922;2023-06-04T19:15:42;24.90;27.20
44729;DHT22;30457;53.590;9.922;2023-06-04T19:20:08;24.70;27.30
44729;DHT22;30457;53.590;9.922;2023-06-04T19:24:33;24.60;27.30
44729;DHT22;30457;53.590;9.922;2023-06-04T19:28:59;24.50;27.70
44729;DHT22;30457;53.590;9.922;2023-06-04T19:33:25;24.40;27.90
44729;DHT22;30457;53.590;9.922;2023-06-04T19:37:50;24.30;28.50
44729;DHT22;30457;53.590;9.922;2023-06-04T19:42:16;24.10;28.20
44729;DHT22;30457;53.590;9.922;2023-06-04T19:46:41;24.00;28.40
44729;DHT22;30457;53.590;9.922;2023-06-04T19:51:07;23.90;28.70
44729;DHT22;30457;53.590;9.922;2023-06-04T19:55:33;23.70;28.80
44729;DHT22;30457;53.590;9.922;2023-06-04T19:59:58;23.60;28.70
44729;DHT22;30457;53.590;9.922;2023-06-04T20:04:24;23.50;29.20
44729;DHT22;30457;53.590;9.922;2023-06-04T20:08:51;23.40;29.30
44729;DHT22;30457;53.590;9.922;2023-06-04T20:13:16;23.30;29.40
44729;DHT22;30457;53.590;9.922;2023-06-04T20:17:42;23.20;29.70
44729;DHT22;30457;53.590;9.922;2023-06-04T20:22:08;23.10;30.00
44729;DHT22;30457;53.590;9.922;2023-06-04T20:26:35;23.00;30.20
44729;DHT22;30457;53.590;9.922;2023-06-04T20:31:01;22.80;30.20
44729;DHT22;30457;53.590;9.922;2023-06-04T20:35:26;22.70;30.60
44729;DHT22;30457;53.590;9.922;2023-06-04T20:39:52;22.60;30.80
44729;DHT22;30457;53.590;9.922;2023-06-04T20:44:19;22.50;31.00
44729;DHT22;30457;53.590;9.922;2023-06-04T20:48:44;22.40;31.30
44729;DHT22;30457;53.590;9.922;2023-06-04T20:53:10;22.30;31.80
44729;DHT22;30457;53.590;9.922;2023-06-04T20:57:35;22.20;32.10
44729;DHT22;30457;53.590;9.922;2023-06-04T21:02:01;22.10;32.30
44729;DHT22;30457;53.590;9.922;2023-06-04T21:06:26;22.00;32.80
44729;DHT22;30457;53.590;9.922;2023-06-04T21:10:52;21.90;33.00
44729;DHT22;30457;53.590;9.922;2023-06-04T21:15:18;21.80;33.20
44729;DHT22;30457;53.590;9.922;2023-06-04T21:19:43;21.70;33.50
44729;DHT22;30457;53.590;9.922;2023-06-04T21:24:09;21.50;33.90
44729;DHT22;30457;53.590;9.922;2023-06-04T21:28:35;21.50;34.40
44729;DHT22;30457;53.590;9.922;2023-06-04T21:33:00;21.40;34.40
44729;DHT22;30457;53.590;9.922;2023-06-04T21:37:26;21.30;34.50
44729;DHT22;30457;53.590;9.922;2023-06-04T21:41:52;21.20;34.80
44729;DHT22;30457;53.590;9.922;2023-06-04T21:46:17;21.00;35.00
44729;DHT22;30457;53.590;9.922;2023-06-04T21:50:44;21.00;35.20
44729;DHT22;30457;53.590;9.922;2023-06-04T21:55:10;20.90;35.20
44729;DHT22;30457;53.590;9.922;2023-06-04T21:59:36;20.80;35.50
44729;DHT22;30457;53.590;9.922;2023-06-04T22:04:01;20.70;35.90
44729;DHT22;30457;53.590;9.922;2023-06-04T22:08:27;20.60;36.00
44729;DHT22;30457;53.590;9.922;2023-06-04T22:12:52;20.50;36.10
44729;DHT22;30457;53.590;9.922;2023-06-04T22:17:18;20.50;36.60
44729;DHT22;30457;53.590;9.922;2023-06-04T22:21:44;20.40;36.70
44729;DHT22;30457;53.590;9.922;2023-06-04T22:26:09;20.30;36.90
44729;DHT22;30457;53.590;9.922;2023-06-04T22:30:35;20.20;36.90
44729;DHT22;30457;53.590;9.922;2023-06-04T22:35:01;20.10;37.30
44729;DHT22;30457;53.590;9.922;2023-06-04T22:39:26;20.00;37.50
44729;DHT22;30457;53.590;9.922;2023-06-04T22:43:52;20.00;37.80
44729;DHT22;30457;53.590;9.922;2023-06-04T22:48:17;19.90;37.90
44729;DHT22;30457;53.590;9.922;2023-06-04T22:52:44;19.80;38.00
44729;DHT22;30457;53.590;9.922;2023-06-04T22:57:09;19.70;38.10
44729;DHT22;30457;53.590;9.922;2023-06-04T23:01:35;19.60;38.40
44729;DHT22;30457;53.590;9.922;2023-06-04T23:06:02;19.50;38.40
44729;DHT22;30457;53.590;9.922;2023-06-04T23:10:27;19.40;38.90
44729;DHT22;30457;53.590;9.922;2023-06-04T23:14:53;19.30;38.90
44729;DHT22;30457;53.590;9.922;2023-06-04T23:19:19;19.30;39.10
44729;DHT22;30457;53.590;9.922;2023-06-04T23:23:46;19.20;39.40
44729;DHT22;30457;53.590;9.922;2023-06-04T23:28:12;19.10;39.60
44729;DHT22;30457;53.590;9.922;2023-06-04T23:32:37;19.00;39.40
44729;DHT22;30457;53.590;9.922;2023-06-04T23:37:03;18.90;39.70
44729;DHT22;30457;53.590;9.922;2023-06-04T23:41:28;18.90;39.90
44729;DHT22;30457;53.590;9.922;2023-06-04T23:45:54;18.80;40.20
44729;DHT22;30457;53.590;9.922;2023-06-04T23:50:20;18.70;40.30
44729;DHT22;30457;53.590;9.922;2023-06-04T23:54:45;18.60;40.50
44729;DHT22;30457;53.590;9.922;2023-06-04T23:59:11;18.60;40.70
